sensor_id;sensor_type;location;lat;lon;timestamp;P1;durP1;ratioP1;P2;durP2;ratioP2
9960;SDS011;5021;51.506;11.320;2022-10-04T00:00:43;5.50;;;2.03;;
9960;SDS011;5021;51.506;11.320;2022-10-04T00:03:10;3.63;;;2.30;;
9960;SDS011;5021;51.506;11.320;2022-10-04T00:05:37;3.67;;;1.97;;
9960;SDS011;5021;51.506;11.320;2022-10-04T00:08:17;3.80;;;2.10;;
9960;SDS011;5021;51.506;11.320;2022-10-04T00:10:44;4.27;;;2.13;;
9960;SDS011;5021;51.506;11.320;2022-10-04T00:13:15;3.80;;;1.93;;
9960;SDS011;5021;51.506;11.320;2022-10-04T00:15:43;7.27;;;2.67;;
9960;SDS011;5021;51.506;11.320;2022-10-04T00:18:21;6.03;;;2.10;;
9960;SDS011;5021;51.506;11.320;2022-10-04T00:25:54;5.60;;;2.23;;
9960;SDS011;5021;51.506;11.320;2022-10-04T00:41:27;9.73;;;2.70;;
9960;SDS011;5021;51.506;11.320;2022-10-04T00:43:53;4.43;;;1.90;;
9960;SDS011;5021;51.506;11.320;2022-10-04T00:46:22;4.87;;;2.00;;
9960;SDS011;5021;51.506;11.320;2022-10-04T00:49:02;4.03;;;2.27;;
9960;SDS011;5021;51.506;11.320;2022-10-04T00:51:44;3.87;;;2.53;;
9960;SDS011;5021;51.506;11.320;2022-10-04T00:56:56;5.67;;;2.30;;
9960;SDS011;5021;51.506;11.320;2022-10-04T00:59:26;5.77;;;2.30;;
9960;SDS011;5021;51.506;11.320;2022-10-04T01:04:34;5.00;;;2.27;;
9960;SDS011;5021;51.506;11.320;2022-10-04T01:07:01;5.37;;;2.50;;
9960;SDS011;5021;51.506;11.320;2022-10-04T01:09:29;3.57;;;2.63;;
9960;SDS011;5021;51.506;11.320;2022-10-04T01:12:05;5.70;;;2.73;;
9960;SDS011;5021;51.506;11.320;2022-10-04T01:15:21;5.03;;;2.60;;
9960;SDS011;5021;51.506;11.320;2022-10-04T01:17:18;6.43;;;2.70;;
9960;SDS011;5021;51.506;11.320;2022-10-04T01:19:48;6.37;;;2.90;;
9960;SDS011;5021;51.506;11.320;2022-10-04T01:25:01;7.47;;;2.93;;
9960;SDS011;5021;51.506;11.320;2022-10-04T01:27:31;7.03;;;2.73;;
9960;SDS011;5021;51.506;11.320;2022-10-04T01:29:57;3.60;;;2.77;;
9960;SDS011;5021;51.506;11.320;2022-10-04T01:32:24;6.40;;;2.80;;
9960;SDS011;5021;51.506;11.320;2022-10-04T01:34:50;5.83;;;2.90;;
9960;SDS011;5021;51.506;11.320;2022-10-04T01:37:16;4.10;;;2.80;;
9960;SDS011;5021;51.506;11.320;2022-10-04T01:39:42;4.23;;;3.10;;
9960;SDS011;5021;51.506;11.320;2022-10-04T01:42:14;6.33;;;3.07;;
9960;SDS011;5021;51.506;11.320;2022-10-04T01:44:44;6.63;;;3.00;;
9960;SDS011;5021;51.506;11.320;2022-10-04T01:47:13;6.40;;;3.17;;
9960;SDS011;5021;51.506;11.320;2022-10-04T01:49:40;5.37;;;3.10;;
9960;SDS011;5021;51.506;11.320;2022-10-04T01:52:21;5.83;;;3.30;;
9960;SDS011;5021;51.506;11.320;2022-10-04T01:54:49;4.67;;;2.83;;
9960;SDS011;5021;51.506;11.320;2022-10-04T01:57:22;5.77;;;3.27;;
9960;SDS011;5021;51.506;11.320;2022-10-04T01:59:53;4.27;;;2.97;;
9960;SDS011;5021;51.506;11.320;2022-10-04T02:04:56;7.03;;;3.17;;
9960;SDS011;5021;51.506;11.320;2022-10-04T02:07:22;6.20;;;3.57;;
9960;SDS011;5021;51.506;11.320;2022-10-04T02:09:53;8.73;;;3.30;;
9960;SDS011;5021;51.506;11.320;2022-10-04T02:12:20;4.70;;;3.07;;
9960;SDS011;5021;51.506;11.320;2022-10-04T02:14:46;3.60;;;3.00;;
9960;SDS011;5021;51.506;11.320;2022-10-04T02:17:24;6.90;;;3.10;;
9960;SDS011;5021;51.506;11.320;2022-10-04T02:19:53;5.13;;;3.47;;
9960;SDS011;5021;51.506;11.320;2022-10-04T02:22:19;5.50;;;3.03;;
9960;SDS011;5021;51.506;11.320;2022-10-04T02:24:47;4.77;;;3.17;;
9960;SDS011;5021;51.506;11.320;2022-10-04T02:27:14;6.37;;;3.73;;
9960;SDS011;5021;51.506;11.320;2022-10-04T02:29:40;5.10;;;3.03;;
9960;SDS011;5021;51.506;11.320;2022-10-04T02:32:07;4.00;;;2.90;;
9960;SDS011;5021;51.506;11.320;2022-10-04T02:34:51;6.17;;;3.33;;
9960;SDS011;5021;51.506;11.320;2022-10-04T02:37:18;6.07;;;3.70;;
9960;SDS011;5021;51.506;11.320;2022-10-04T02:39:47;7.00;;;3.47;;
9960;SDS011;5021;51.506;11.320;2022-10-04T02:42:17;5.03;;;3.50;;
9960;SDS011;5021;51.506;11.320;2022-10-04T02:45:28;10.07;;;3.60;;
9960;SDS011;5021;51.506;11.320;2022-10-04T02:47:46;5.80;;;3.23;;
9960;SDS011;5021;51.506;11.320;2022-10-04T02:50:20;6.37;;;3.47;;
9960;SDS011;5021;51.506;11.320;2022-10-04T02:52:50;4.63;;;3.30;;
9960;SDS011;5021;51.506;11.320;2022-10-04T02:55:22;8.30;;;3.10;;
9960;SDS011;5021;51.506;11.320;2022-10-04T02:57:50;5.23;;;3.20;;
9960;SDS011;5021;51.506;11.320;2022-10-04T03:00:20;7.60;;;3.30;;
9960;SDS011;5021;51.506;11.320;2022-10-04T03:05:32;9.23;;;3.67;;
9960;SDS011;5021;51.506;11.320;2022-10-04T03:07:58;8.73;;;3.67;;
9960;SDS011;5021;51.506;11.320;2022-10-04T03:10:24;9.90;;;4.23;;
9960;SDS011;5021;51.506;11.320;2022-10-04T03:12:50;15.07;;;5.50;;
9960;SDS011;5021;51.506;11.320;2022-10-04T03:15:17;14.47;;;5.77;;
9960;SDS011;5021;51.506;11.320;2022-10-04T03:17:44;8.23;;;4.17;;
9960;SDS011;5021;51.506;11.320;2022-10-04T03:20:11;9.03;;;4.50;;
9960;SDS011;5021;51.506;11.320;2022-10-04T03:22:43;6.17;;;3.80;;
9960;SDS011;5021;51.506;11.320;2022-10-04T03:25:11;10.57;;;4.30;;
9960;SDS011;5021;51.506;11.320;2022-10-04T03:27:41;8.33;;;3.90;;
9960;SDS011;5021;51.506;11.320;2022-10-04T03:30:11;8.47;;;4.03;;
9960;SDS011;5021;51.506;11.320;2022-10-04T03:32:38;8.13;;;4.50;;
9960;SDS011;5021;51.506;11.320;2022-10-04T03:35:04;7.93;;;3.83;;
9960;SDS011;5021;51.506;11.320;2022-10-04T03:37:33;7.67;;;4.00;;
9960;SDS011;5021;51.506;11.320;2022-10-04T03:40:00;7.83;;;4.00;;
9960;SDS011;5021;51.506;11.320;2022-10-04T03:42:27;7.93;;;3.63;;
9960;SDS011;5021;51.506;11.320;2022-10-04T03:44:55;9.23;;;4.10;;
9960;SDS011;5021;51.506;11.320;2022-10-04T03:47:26;8.13;;;3.97;;
9960;SDS011;5021;51.506;11.320;2022-10-04T03:49:53;9.83;;;4.43;;
9960;SDS011;5021;51.506;11.320;2022-10-04T03:52:21;10.73;;;4.33;;
9960;SDS011;5021;51.506;11.320;2022-10-04T03:54:50;7.27;;;4.23;;
9960;SDS011;5021;51.506;11.320;2022-10-04T03:57:16;9.10;;;4.33;;
9960;SDS011;5021;51.506;11.320;2022-10-04T03:59:42;7.27;;;3.93;;
9960;SDS011;5021;51.506;11.320;2022-10-04T04:07:37;7.13;;;4.97;;
9960;SDS011;5021;51.506;11.320;2022-10-04T04:10:06;7.33;;;4.57;;
9960;SDS011;5021;51.506;11.320;2022-10-04T04:12:39;7.50;;;3.80;;
9960;SDS011;5021;51.506;11.320;2022-10-04T04:15:08;7.60;;;4.30;;
9960;SDS011;5021;51.506;11.320;2022-10-04T04:17:36;14.20;;;4.97;;
9960;SDS011;5021;51.506;11.320;2022-10-04T04:20:06;10.77;;;4.77;;
9960;SDS011;5021;51.506;11.320;2022-10-04T04:22:36;8.00;;;4.30;;
9960;SDS011;5021;51.506;11.320;2022-10-04T04:25:06;8.27;;;4.60;;
9960;SDS011;5021;51.506;11.320;2022-10-04T04:27:36;7.00;;;4.30;;
9960;SDS011;5021;51.506;11.320;2022-10-04T04:30:04;9.30;;;4.77;;
9960;SDS011;5021;51.506;11.320;2022-10-04T04:32:32;8.57;;;4.87;;
9960;SDS011;5021;51.506;11.320;2022-10-04T04:35:00;7.37;;;4.30;;
9960;SDS011;5021;51.506;11.320;2022-10-04T04:37:35;8.67;;;5.13;;
9960;SDS011;5021;51.506;11.320;2022-10-04T04:40:18;7.90;;;5.70;;
9960;SDS011;5021;51.506;11.320;2022-10-04T04:42:44;11.10;;;4.90;;
9960;SDS011;5021;51.506;11.320;2022-10-04T04:45:15;9.07;;;5.00;;
9960;SDS011;5021;51.506;11.320;2022-10-04T04:47:43;8.17;;;5.00;;
9960;SDS011;5021;51.506;11.320;2022-10-04T04:50:14;6.30;;;5.17;;
9960;SDS011;5021;51.506;11.320;2022-10-04T04:52:42;7.80;;;5.77;;
9960;SDS011;5021;51.506;11.320;2022-10-04T04:55:22;7.83;;;5.20;;
9960;SDS011;5021;51.506;11.320;2022-10-04T04:57:49;8.80;;;5.33;;
9960;SDS011;5021;51.506;11.320;2022-10-04T05:00:16;9.27;;;5.73;;
9960;SDS011;5021;51.506;11.320;2022-10-04T05:02:49;9.97;;;5.83;;
9960;SDS011;5021;51.506;11.320;2022-10-04T05:05:25;8.47;;;5.70;;
9960;SDS011;5021;51.506;11.320;2022-10-04T05:10:37;7.30;;;5.40;;
9960;SDS011;5021;51.506;11.320;2022-10-04T05:13:04;9.53;;;5.80;;
9960;SDS011;5021;51.506;11.320;2022-10-04T05:15:33;8.20;;;5.37;;
9960;SDS011;5021;51.506;11.320;2022-10-04T05:18:21;11.23;;;6.00;;
9960;SDS011;5021;51.506;11.320;2022-10-04T05:20:52;11.73;;;6.33;;
9960;SDS011;5021;51.506;11.320;2022-10-04T05:23:18;10.37;;;6.20;;
9960;SDS011;5021;51.506;11.320;2022-10-04T05:25:44;12.03;;;6.50;;
9960;SDS011;5021;51.506;11.320;2022-10-04T05:28:11;10.93;;;6.13;;
9960;SDS011;5021;51.506;11.320;2022-10-04T05:33:25;12.77;;;5.90;;
9960;SDS011;5021;51.506;11.320;2022-10-04T05:38:42;12.43;;;7.57;;
9960;SDS011;5021;51.506;11.320;2022-10-04T05:41:18;11.83;;;7.30;;
9960;SDS011;5021;51.506;11.320;2022-10-04T05:43:48;9.37;;;6.33;;
9960;SDS011;5021;51.506;11.320;2022-10-04T05:48:44;11.17;;;6.07;;
9960;SDS011;5021;51.506;11.320;2022-10-04T05:51:17;12.03;;;6.73;;
9960;SDS011;5021;51.506;11.320;2022-10-04T05:53:43;10.37;;;6.10;;
9960;SDS011;5021;51.506;11.320;2022-10-04T06:06:30;10.20;;;6.70;;
9960;SDS011;5021;51.506;11.320;2022-10-04T06:09:06;13.10;;;8.10;;
9960;SDS011;5021;51.506;11.320;2022-10-04T06:19:40;12.87;;;10.17;;
9960;SDS011;5021;51.506;11.320;2022-10-04T06:22:20;16.63;;;9.93;;
9960;SDS011;5021;51.506;11.320;2022-10-04T06:24:59;13.03;;;9.17;;
9960;SDS011;5021;51.506;11.320;2022-10-04T06:30:19;14.53;;;9.60;;
9960;SDS011;5021;51.506;11.320;2022-10-04T06:41:15;13.50;;;8.70;;
9960;SDS011;5021;51.506;11.320;2022-10-04T06:43:13;11.57;;;8.67;;
9960;SDS011;5021;51.506;11.320;2022-10-04T06:51:22;12.87;;;8.30;;
9960;SDS011;5021;51.506;11.320;2022-10-04T06:54:13;11.07;;;8.70;;
9960;SDS011;5021;51.506;11.320;2022-10-04T06:56:55;13.73;;;8.20;;
9960;SDS011;5021;51.506;11.320;2022-10-04T06:59:30;8.90;;;7.30;;
9960;SDS011;5021;51.506;11.320;2022-10-04T07:02:10;11.27;;;8.00;;
9960;SDS011;5021;51.506;11.320;2022-10-04T07:04:38;13.13;;;7.40;;
9960;SDS011;5021;51.506;11.320;2022-10-04T07:09:49;10.37;;;6.83;;
9960;SDS011;5021;51.506;11.320;2022-10-04T07:12:17;10.47;;;6.97;;
9960;SDS011;5021;51.506;11.320;2022-10-04T07:14:47;10.17;;;6.33;;
9960;SDS011;5021;51.506;11.320;2022-10-04T07:17:16;7.90;;;6.17;;
9960;SDS011;5021;51.506;11.320;2022-10-04T07:19:47;9.23;;;6.07;;
9960;SDS011;5021;51.506;11.320;2022-10-04T07:22:21;10.03;;;5.37;;
9960;SDS011;5021;51.506;11.320;2022-10-04T07:30:12;9.80;;;5.20;;
9960;SDS011;5021;51.506;11.320;2022-10-04T07:32:43;8.17;;;5.40;;
9960;SDS011;5021;51.506;11.320;2022-10-04T07:40:21;10.60;;;5.53;;
9960;SDS011;5021;51.506;11.320;2022-10-04T07:42:56;8.17;;;5.13;;
9960;SDS011;5021;51.506;11.320;2022-10-04T07:45:37;11.93;;;5.63;;
9960;SDS011;5021;51.506;11.320;2022-10-04T07:48:14;9.97;;;6.07;;
9960;SDS011;5021;51.506;11.320;2022-10-04T07:50:43;11.87;;;6.37;;
9960;SDS011;5021;51.506;11.320;2022-10-04T07:55:41;9.27;;;5.60;;
9960;SDS011;5021;51.506;11.320;2022-10-04T07:58:17;9.57;;;6.47;;
9960;SDS011;5021;51.506;11.320;2022-10-04T08:00:47;9.73;;;6.57;;
9960;SDS011;5021;51.506;11.320;2022-10-04T08:06:29;10.07;;;5.87;;
9960;SDS011;5021;51.506;11.320;2022-10-04T08:13:38;7.93;;;4.83;;
9960;SDS011;5021;51.506;11.320;2022-10-04T08:16:13;8.87;;;5.63;;
9960;SDS011;5021;51.506;11.320;2022-10-04T08:21:29;6.97;;;5.10;;
9960;SDS011;5021;51.506;11.320;2022-10-04T08:31:56;7.27;;;3.60;;
9960;SDS011;5021;51.506;11.320;2022-10-04T08:44:54;6.30;;;4.20;;
9960;SDS011;5021;51.506;11.320;2022-10-04T09:00:39;7.37;;;4.13;;
9960;SDS011;5021;51.506;11.320;2022-10-04T09:03:22;5.07;;;3.90;;
9960;SDS011;5021;51.506;11.320;2022-10-04T09:13:38;8.60;;;4.00;;
9960;SDS011;5021;51.506;11.320;2022-10-04T09:16:18;5.73;;;4.00;;
9960;SDS011;5021;51.506;11.320;2022-10-04T09:22:02;7.43;;;4.00;;
9960;SDS011;5021;51.506;11.320;2022-10-04T09:24:11;5.53;;;4.03;;
9960;SDS011;5021;51.506;11.320;2022-10-04T09:26:44;8.37;;;4.57;;
9960;SDS011;5021;51.506;11.320;2022-10-04T09:32:09;7.27;;;3.47;;
9960;SDS011;5021;51.506;11.320;2022-10-04T09:53:39;7.33;;;3.63;;
9960;SDS011;5021;51.506;11.320;2022-10-04T10:01:21;7.47;;;3.13;;
9960;SDS011;5021;51.506;11.320;2022-10-04T10:15:43;8.13;;;3.10;;
9960;SDS011;5021;51.506;11.320;2022-10-04T10:23:34;6.53;;;2.60;;
9960;SDS011;5021;51.506;11.320;2022-10-04T10:32:02;4.67;;;2.60;;
9960;SDS011;5021;51.506;11.320;2022-10-04T10:37:09;6.77;;;2.87;;
9960;SDS011;5021;51.506;11.320;2022-10-04T10:47:33;7.03;;;3.40;;
9960;SDS011;5021;51.506;11.320;2022-10-04T10:54:57;8.00;;;3.10;;
9960;SDS011;5021;51.506;11.320;2022-10-04T11:21:12;4.73;;;2.60;;
9960;SDS011;5021;51.506;11.320;2022-10-04T11:23:48;4.77;;;2.50;;
9960;SDS011;5021;51.506;11.320;2022-10-04T11:36:44;3.80;;;2.50;;
9960;SDS011;5021;51.506;11.320;2022-10-04T11:41:47;6.50;;;2.80;;
9960;SDS011;5021;51.506;11.320;2022-10-04T11:49:56;4.83;;;2.57;;
9960;SDS011;5021;51.506;11.320;2022-10-04T11:55:27;7.30;;;2.63;;
9960;SDS011;5021;51.506;11.320;2022-10-04T12:03:36;5.97;;;2.60;;
9960;SDS011;5021;51.506;11.320;2022-10-04T12:06:12;4.23;;;2.30;;
9960;SDS011;5021;51.506;11.320;2022-10-04T12:16:40;4.60;;;2.50;;
9960;SDS011;5021;51.506;11.320;2022-10-04T12:19:54;4.27;;;2.20;;
9960;SDS011;5021;51.506;11.320;2022-10-04T12:32:18;3.03;;;1.93;;
9960;SDS011;5021;51.506;11.320;2022-10-04T12:37:29;4.30;;;2.00;;
9960;SDS011;5021;51.506;11.320;2022-10-04T12:40:04;3.50;;;1.73;;
9960;SDS011;5021;51.506;11.320;2022-10-04T12:42:51;4.73;;;2.03;;
9960;SDS011;5021;51.506;11.320;2022-10-04T12:52:53;4.10;;;2.00;;
9960;SDS011;5021;51.506;11.320;2022-10-04T12:55:43;1.93;;;1.40;;
9960;SDS011;5021;51.506;11.320;2022-10-04T12:58:20;3.17;;;1.70;;
9960;SDS011;5021;51.506;11.320;2022-10-04T13:00:48;3.90;;;1.80;;
9960;SDS011;5021;51.506;11.320;2022-10-04T13:03:19;2.53;;;1.60;;
9960;SDS011;5021;51.506;11.320;2022-10-04T13:08:39;3.87;;;1.90;;
9960;SDS011;5021;51.506;11.320;2022-10-04T13:16:33;2.60;;;1.77;;
9960;SDS011;5021;51.506;11.320;2022-10-04T13:24:48;2.57;;;1.90;;
9960;SDS011;5021;51.506;11.320;2022-10-04T13:27:00;3.30;;;2.07;;
9960;SDS011;5021;51.506;11.320;2022-10-04T13:29:32;3.10;;;1.90;;
9960;SDS011;5021;51.506;11.320;2022-10-04T13:32:05;3.93;;;2.23;;
9960;SDS011;5021;51.506;11.320;2022-10-04T13:34:37;4.43;;;2.10;;
9960;SDS011;5021;51.506;11.320;2022-10-04T13:37:14;2.90;;;2.00;;
9960;SDS011;5021;51.506;11.320;2022-10-04T13:45:50;2.20;;;1.80;;
9960;SDS011;5021;51.506;11.320;2022-10-04T13:59:00;3.20;;;2.07;;
9960;SDS011;5021;51.506;11.320;2022-10-04T14:01:41;2.53;;;1.87;;
9960;SDS011;5021;51.506;11.320;2022-10-04T14:04:29;5.37;;;2.27;;
9960;SDS011;5021;51.506;11.320;2022-10-04T14:25:43;3.87;;;2.00;;
9960;SDS011;5021;51.506;11.320;2022-10-04T14:33:34;3.57;;;2.33;;
9960;SDS011;5021;51.506;11.320;2022-10-04T14:38:59;4.90;;;2.40;;
9960;SDS011;5021;51.506;11.320;2022-10-04T14:41:43;3.57;;;2.07;;
9960;SDS011;5021;51.506;11.320;2022-10-04T14:50:18;6.90;;;2.17;;
9960;SDS011;5021;51.506;11.320;2022-10-04T15:00:54;2.57;;;1.93;;
9960;SDS011;5021;51.506;11.320;2022-10-04T15:03:30;3.73;;;1.87;;
9960;SDS011;5021;51.506;11.320;2022-10-04T15:08:36;4.87;;;2.20;;
9960;SDS011;5021;51.506;11.320;2022-10-04T15:11:07;2.30;;;2.03;;
9960;SDS011;5021;51.506;11.320;2022-10-04T15:13:47;3.07;;;1.90;;
9960;SDS011;5021;51.506;11.320;2022-10-04T15:23:56;3.37;;;1.90;;
9960;SDS011;5021;51.506;11.320;2022-10-04T15:29:11;3.27;;;1.87;;
9960;SDS011;5021;51.506;11.320;2022-10-04T15:39:24;1.90;;;1.63;;
9960;SDS011;5021;51.506;11.320;2022-10-04T15:41:55;3.30;;;2.00;;
9960;SDS011;5021;51.506;11.320;2022-10-04T15:55:21;2.20;;;1.80;;
9960;SDS011;5021;51.506;11.320;2022-10-04T15:57:56;2.70;;;1.90;;
9960;SDS011;5021;51.506;11.320;2022-10-04T16:00:27;2.50;;;1.90;;
9960;SDS011;5021;51.506;11.320;2022-10-04T16:31:42;4.23;;;2.20;;
9960;SDS011;5021;51.506;11.320;2022-10-04T16:36:50;5.00;;;1.93;;
9960;SDS011;5021;51.506;11.320;2022-10-04T16:42:20;2.60;;;2.03;;
9960;SDS011;5021;51.506;11.320;2022-10-04T16:44:49;4.73;;;2.90;;
9960;SDS011;5021;51.506;11.320;2022-10-04T16:49:50;4.73;;;2.27;;
9960;SDS011;5021;51.506;11.320;2022-10-04T16:52:41;3.73;;;2.33;;
9960;SDS011;5021;51.506;11.320;2022-10-04T17:00:35;5.30;;;2.50;;
9960;SDS011;5021;51.506;11.320;2022-10-04T17:08:24;4.13;;;2.40;;
9960;SDS011;5021;51.506;11.320;2022-10-04T17:21:38;4.43;;;2.43;;
9960;SDS011;5021;51.506;11.320;2022-10-04T17:24:19;4.73;;;2.77;;
9960;SDS011;5021;51.506;11.320;2022-10-04T17:26:55;6.03;;;2.60;;
9960;SDS011;5021;51.506;11.320;2022-10-04T17:32:19;3.77;;;2.80;;
9960;SDS011;5021;51.506;11.320;2022-10-04T17:39:47;6.97;;;3.07;;
9960;SDS011;5021;51.506;11.320;2022-10-04T17:47:38;3.10;;;2.80;;
9960;SDS011;5021;51.506;11.320;2022-10-04T17:50:31;4.17;;;3.30;;
9960;SDS011;5021;51.506;11.320;2022-10-04T17:53:19;5.80;;;3.23;;
9960;SDS011;5021;51.506;11.320;2022-10-04T17:56:46;3.60;;;3.10;;
9960;SDS011;5021;51.506;11.320;2022-10-04T17:59:15;6.63;;;3.23;;
9960;SDS011;5021;51.506;11.320;2022-10-04T18:01:52;6.27;;;3.17;;
9960;SDS011;5021;51.506;11.320;2022-10-04T18:04:22;4.13;;;3.33;;
9960;SDS011;5021;51.506;11.320;2022-10-04T18:09:27;6.27;;;3.60;;
9960;SDS011;5021;51.506;11.320;2022-10-04T18:12:23;4.27;;;3.77;;
9960;SDS011;5021;51.506;11.320;2022-10-04T18:17:43;4.43;;;3.60;;
9960;SDS011;5021;51.506;11.320;2022-10-04T18:20:25;4.73;;;3.50;;
9960;SDS011;5021;51.506;11.320;2022-10-04T18:23:00;4.77;;;3.63;;
9960;SDS011;5021;51.506;11.320;2022-10-04T18:25:28;5.80;;;4.17;;
9960;SDS011;5021;51.506;11.320;2022-10-04T18:33:13;4.57;;;3.60;;
9960;SDS011;5021;51.506;11.320;2022-10-04T18:35:50;5.93;;;3.73;;
9960;SDS011;5021;51.506;11.320;2022-10-04T18:38:21;4.57;;;3.90;;
9960;SDS011;5021;51.506;11.320;2022-10-04T18:40:52;6.83;;;4.03;;
9960;SDS011;5021;51.506;11.320;2022-10-04T18:43:25;5.93;;;4.43;;
9960;SDS011;5021;51.506;11.320;2022-10-04T18:46:14;5.67;;;4.70;;
9960;SDS011;5021;51.506;11.320;2022-10-04T18:48:54;16.80;;;8.67;;
9960;SDS011;5021;51.506;11.320;2022-10-04T18:56:18;7.83;;;5.97;;
9960;SDS011;5021;51.506;11.320;2022-10-04T19:04:30;12.90;;;8.70;;
9960;SDS011;5021;51.506;11.320;2022-10-04T19:07:01;11.60;;;7.70;;
9960;SDS011;5021;51.506;11.320;2022-10-04T19:12:13;13.50;;;10.43;;
9960;SDS011;5021;51.506;11.320;2022-10-04T19:14:44;16.07;;;13.77;;
9960;SDS011;5021;51.506;11.320;2022-10-04T19:22:28;17.77;;;15.10;;
9960;SDS011;5021;51.506;11.320;2022-10-04T19:27:51;16.67;;;13.50;;
9960;SDS011;5021;51.506;11.320;2022-10-04T19:30:24;12.80;;;11.10;;
9960;SDS011;5021;51.506;11.320;2022-10-04T19:38:24;13.83;;;11.50;;
9960;SDS011;5021;51.506;11.320;2022-10-04T19:41:10;14.07;;;10.70;;
9960;SDS011;5021;51.506;11.320;2022-10-04T19:48:52;22.37;;;17.00;;
9960;SDS011;5021;51.506;11.320;2022-10-04T19:51:36;18.97;;;13.17;;
9960;SDS011;5021;51.506;11.320;2022-10-04T19:54:09;16.67;;;12.10;;
9960;SDS011;5021;51.506;11.320;2022-10-04T19:56:41;17.53;;;13.63;;
9960;SDS011;5021;51.506;11.320;2022-10-04T19:59:16;16.20;;;12.33;;
9960;SDS011;5021;51.506;11.320;2022-10-04T20:01:44;14.37;;;10.93;;
9960;SDS011;5021;51.506;11.320;2022-10-04T20:04:12;13.67;;;9.57;;
9960;SDS011;5021;51.506;11.320;2022-10-04T20:06:57;12.07;;;9.33;;
9960;SDS011;5021;51.506;11.320;2022-10-04T20:12:29;12.73;;;9.70;;
9960;SDS011;5021;51.506;11.320;2022-10-04T20:17:47;20.23;;;10.63;;
9960;SDS011;5021;51.506;11.320;2022-10-04T20:20:15;12.50;;;10.20;;
9960;SDS011;5021;51.506;11.320;2022-10-04T20:27:59;11.10;;;8.53;;
9960;SDS011;5021;51.506;11.320;2022-10-04T20:30:35;22.70;;;14.13;;
9960;SDS011;5021;51.506;11.320;2022-10-04T20:33:38;19.70;;;14.03;;
9960;SDS011;5021;51.506;11.320;2022-10-04T20:36:08;16.93;;;12.87;;
9960;SDS011;5021;51.506;11.320;2022-10-04T20:38:41;17.30;;;12.50;;
9960;SDS011;5021;51.506;11.320;2022-10-04T20:44:01;16.97;;;13.37;;
9960;SDS011;5021;51.506;11.320;2022-10-04T20:46:30;15.07;;;10.23;;
9960;SDS011;5021;51.506;11.320;2022-10-04T20:48:59;10.53;;;8.50;;
9960;SDS011;5021;51.506;11.320;2022-10-04T20:51:26;10.03;;;6.80;;
9960;SDS011;5021;51.506;11.320;2022-10-04T20:53:57;9.30;;;7.17;;
9960;SDS011;5021;51.506;11.320;2022-10-04T20:56:31;10.10;;;6.20;;
9960;SDS011;5021;51.506;11.320;2022-10-04T20:58:58;7.77;;;5.77;;
9960;SDS011;5021;51.506;11.320;2022-10-04T21:01:26;7.03;;;6.20;;
9960;SDS011;5021;51.506;11.320;2022-10-04T21:06:55;9.17;;;5.67;;
9960;SDS011;5021;51.506;11.320;2022-10-04T21:09:21;6.93;;;5.30;;
9960;SDS011;5021;51.506;11.320;2022-10-04T21:11:51;5.87;;;5.13;;
9960;SDS011;5021;51.506;11.320;2022-10-04T21:14:20;6.07;;;5.10;;
9960;SDS011;5021;51.506;11.320;2022-10-04T21:16:47;5.87;;;5.10;;
9960;SDS011;5021;51.506;11.320;2022-10-04T21:21:55;7.57;;;6.20;;
9960;SDS011;5021;51.506;11.320;2022-10-04T21:24:34;8.77;;;6.63;;
9960;SDS011;5021;51.506;11.320;2022-10-04T21:27:00;7.67;;;6.20;;
9960;SDS011;5021;51.506;11.320;2022-10-04T21:29:26;7.40;;;6.60;;
9960;SDS011;5021;51.506;11.320;2022-10-04T21:31:54;8.73;;;6.53;;
9960;SDS011;5021;51.506;11.320;2022-10-04T21:34:21;7.20;;;6.17;;
9960;SDS011;5021;51.506;11.320;2022-10-04T21:36:46;8.20;;;6.60;;
9960;SDS011;5021;51.506;11.320;2022-10-04T21:39:13;7.87;;;7.07;;
9960;SDS011;5021;51.506;11.320;2022-10-04T21:41:39;12.50;;;7.27;;
9960;SDS011;5021;51.506;11.320;2022-10-04T21:44:04;10.17;;;7.27;;
9960;SDS011;5021;51.506;11.320;2022-10-04T21:46:30;8.43;;;7.30;;
9960;SDS011;5021;51.506;11.320;2022-10-04T21:48:56;8.97;;;8.03;;
9960;SDS011;5021;51.506;11.320;2022-10-04T21:51:22;8.07;;;7.27;;
9960;SDS011;5021;51.506;11.320;2022-10-04T21:53:48;9.90;;;7.80;;
9960;SDS011;5021;51.506;11.320;2022-10-04T21:56:14;10.00;;;7.90;;
9960;SDS011;5021;51.506;11.320;2022-10-04T21:58:40;10.63;;;7.73;;
9960;SDS011;5021;51.506;11.320;2022-10-04T22:01:06;7.47;;;6.63;;
9960;SDS011;5021;51.506;11.320;2022-10-04T22:03:32;7.40;;;5.93;;
9960;SDS011;5021;51.506;11.320;2022-10-04T22:05:58;7.03;;;5.20;;
9960;SDS011;5021;51.506;11.320;2022-10-04T22:08:24;6.57;;;5.40;;
9960;SDS011;5021;51.506;11.320;2022-10-04T22:10:50;5.70;;;5.13;;
9960;SDS011;5021;51.506;11.320;2022-10-04T22:13:16;6.67;;;5.33;;
9960;SDS011;5021;51.506;11.320;2022-10-04T22:15:42;6.40;;;5.00;;
9960;SDS011;5021;51.506;11.320;2022-10-04T22:18:08;6.30;;;4.77;;
9960;SDS011;5021;51.506;11.320;2022-10-04T22:20:34;5.83;;;4.60;;
9960;SDS011;5021;51.506;11.320;2022-10-04T22:23:01;5.93;;;4.47;;
9960;SDS011;5021;51.506;11.320;2022-10-04T22:25:29;5.53;;;4.80;;
9960;SDS011;5021;51.506;11.320;2022-10-04T22:27:55;4.77;;;4.20;;
9960;SDS011;5021;51.506;11.320;2022-10-04T22:32:47;5.10;;;4.40;;
9960;SDS011;5021;51.506;11.320;2022-10-04T22:35:15;7.40;;;4.70;;
9960;SDS011;5021;51.506;11.320;2022-10-04T22:37:41;4.80;;;4.30;;
9960;SDS011;5021;51.506;11.320;2022-10-04T22:40:13;6.60;;;5.13;;
9960;SDS011;5021;51.506;11.320;2022-10-04T22:42:39;8.50;;;5.10;;
9960;SDS011;5021;51.506;11.320;2022-10-04T22:45:07;5.73;;;4.60;;
9960;SDS011;5021;51.506;11.320;2022-10-04T22:47:34;6.13;;;4.60;;
9960;SDS011;5021;51.506;11.320;2022-10-04T22:49:59;5.80;;;4.47;;
9960;SDS011;5021;51.506;11.320;2022-10-04T22:52:26;5.13;;;4.30;;
9960;SDS011;5021;51.506;11.320;2022-10-04T22:54:52;6.60;;;4.60;;
9960;SDS011;5021;51.506;11.320;2022-10-04T22:57:22;6.67;;;4.57;;
9960;SDS011;5021;51.506;11.320;2022-10-04T22:59:50;5.70;;;5.03;;
9960;SDS011;5021;51.506;11.320;2022-10-04T23:02:17;5.07;;;4.20;;
9960;SDS011;5021;51.506;11.320;2022-10-04T23:04:54;5.00;;;4.50;;
9960;SDS011;5021;51.506;11.320;2022-10-04T23:07:20;7.90;;;4.60;;
9960;SDS011;5021;51.506;11.320;2022-10-04T23:09:46;11.63;;;5.00;;
9960;SDS011;5021;51.506;11.320;2022-10-04T23:12:12;7.37;;;4.33;;
9960;SDS011;5021;51.506;11.320;2022-10-04T23:14:38;6.70;;;4.43;;
9960;SDS011;5021;51.506;11.320;2022-10-04T23:17:14;6.53;;;4.30;;
9960;SDS011;5021;51.506;11.320;2022-10-04T23:19:42;7.30;;;4.70;;
9960;SDS011;5021;51.506;11.320;2022-10-04T23:22:08;7.57;;;5.30;;
9960;SDS011;5021;51.506;11.320;2022-10-04T23:24:39;7.87;;;4.53;;
9960;SDS011;5021;51.506;11.320;2022-10-04T23:27:05;5.13;;;4.37;;
9960;SDS011;5021;51.506;11.320;2022-10-04T23:29:37;5.37;;;3.83;;
9960;SDS011;5021;51.506;11.320;2022-10-04T23:32:13;5.80;;;4.67;;
9960;SDS011;5021;51.506;11.320;2022-10-04T23:34:41;4.53;;;4.07;;
9960;SDS011;5021;51.506;11.320;2022-10-04T23:37:20;6.80;;;4.60;;
9960;SDS011;5021;51.506;11.320;2022-10-04T23:39:47;5.53;;;3.77;;
9960;SDS011;5021;51.506;11.320;2022-10-04T23:42:15;6.37;;;4.40;;
9960;SDS011;5021;51.506;11.320;2022-10-04T23:44:42;5.73;;;4.50;;
9960;SDS011;5021;51.506;11.320;2022-10-04T23:47:10;6.93;;;4.60;;
9960;SDS011;5021;51.506;11.320;2022-10-04T23:49:36;6.70;;;5.03;;
9960;SDS011;5021;51.506;11.320;2022-10-04T23:52:02;7.57;;;4.47;;
9960;SDS011;5021;51.506;11.320;2022-10-04T23:54:28;4.97;;;4.43;;
9960;SDS011;5021;51.506;11.320;2022-10-04T23:56:54;6.13;;;4.37;;
9960;SDS011;5021;51.506;11.320;2022-10-04T23:59:21;4.97;;;4.13;;
